createdAt,value
2022-12-08T00:02:20.295Z,37.40
2022-12-08T00:05:06.887Z,44.30
2022-12-08T00:07:52.258Z,51.00
2022-12-08T00:10:47.315Z,59.20
2022-12-08T00:13:05.409Z,72.70
2022-12-08T00:16:00.643Z,46.80
2022-12-08T00:18:27.188Z,45.30
2022-12-08T00:20:55.552Z,39.50
2022-12-08T00:23:22.128Z,36.00
2022-12-08T00:25:48.709Z,33.40
2022-12-08T00:28:16.433Z,51.90
2022-12-08T00:30:43.141Z,45.30
2022-12-08T00:33:13.913Z,46.00
2022-12-08T00:35:44.258Z,34.00
2022-12-08T00:38:56.339Z,42.40
2022-12-08T00:42:02.680Z,41.60
2022-12-08T00:44:48.185Z,33.10
2022-12-08T00:47:22.224Z,27.30
2022-12-08T00:50:21.973Z,36.10
2022-12-08T00:56:08.217Z,37.70
2022-12-08T00:58:46.242Z,32.80
2022-12-08T01:02:03.941Z,33.90
2022-12-08T01:04:32.190Z,52.80
2022-12-08T01:07:02.530Z,25.30
2022-12-08T01:09:33.160Z,28.10
2022-12-08T01:15:02.480Z,31.00
2022-12-08T01:17:50.616Z,40.30
2022-12-08T01:21:06.646Z,30.20
2022-12-08T01:23:55.340Z,33.50
2022-12-08T01:26:24.593Z,35.60
2022-12-08T07:04:24.777Z,32.40
2022-12-08T07:06:51.435Z,36.70
2022-12-08T07:09:18.116Z,43.40
2022-12-08T07:11:44.646Z,37.70
2022-12-08T07:14:17.427Z,37.20
2022-12-08T07:16:46.811Z,48.30
2022-12-08T07:19:17.367Z,52.90
2022-12-08T07:21:49.806Z,44.40
2022-12-08T07:24:22.590Z,55.40
2022-12-08T07:26:52.812Z,48.40
2022-12-08T07:29:26.226Z,58.20
2022-12-08T07:31:57.821Z,41.70
2022-12-08T07:34:41.306Z,62.80
2022-12-08T07:37:11.528Z,52.50
2022-12-08T07:39:44.147Z,44.70
2022-12-08T07:42:14.437Z,53.60
2022-12-08T07:44:46.969Z,46.40
2022-12-08T07:47:58.424Z,47.60
2022-12-08T07:50:29.296Z,46.20
2022-12-08T07:52:55.991Z,48.70
2022-12-08T07:55:22.580Z,68.40
2022-12-08T07:57:50.039Z,53.50
2022-12-08T08:00:17.825Z,48.20
2022-12-08T08:02:44.824Z,68.60
2022-12-08T08:05:14.399Z,38.60
2022-12-08T08:07:42.908Z,66.60
2022-12-08T08:10:10.731Z,83.30
2022-12-08T08:12:38.210Z,82.10
2022-12-08T08:15:10.202Z,97.80
2022-12-08T08:17:37.546Z,118.80
2022-12-08T08:22:36.214Z,156.20
2022-12-08T08:25:03.308Z,170.80
2022-12-08T08:27:30.229Z,180.20
2022-12-08T08:29:57.008Z,180.70
2022-12-08T08:32:26.344Z,155.90
2022-12-08T08:34:55.262Z,163.70
2022-12-08T08:37:22.136Z,191.10
2022-12-08T08:39:48.787Z,235.20
2022-12-08T08:42:15.533Z,154.70
2022-12-08T08:44:42.356Z,154.70
